sensor_id;sensor_type;location;lat;lon;timestamp;temperature;humidity
23669;DHT22;12011;47.422;15.018;2024-02-26T00:00:38;-1.80;99.90
23669;DHT22;12011;47.422;15.018;2024-02-26T00:03:07;-1.90;99.90
23669;DHT22;12011;47.422;15.018;2024-02-26T00:05:37;-0.60;99.90
23669;DHT22;12011;47.422;15.018;2024-02-26T00:08:07;-2.00;99.90
23669;DHT22;12011;47.422;15.018;2024-02-26T00:10:39;-2.00;99.90
23669;DHT22;12011;47.422;15.018;2024-02-26T00:13:08;-1.70;99.90
23669;DHT22;12011;47.422;15.018;2024-02-26T00:15:38;-0.90;99.90
23669;DHT22;12011;47.422;15.018;2024-02-26T00:18:07;-2.20;99.90
23669;DHT22;12011;47.422;15.018;2024-02-26T00:20:36;-2.10;99.90
23669;DHT22;12011;47.422;15.018;2024-02-26T00:23:09;-2.10;99.90
23669;DHT22;12011;47.422;15.018;2024-02-26T00:25:41;-2.00;99.90
23669;DHT22;12011;47.422;15.018;2024-02-26T00:28:10;-2.10;99.90
23669;DHT22;12011;47.422;15.018;2024-02-26T00:30:40;-2.20;99.90
23669;DHT22;12011;47.422;15.018;2024-02-26T00:33:09;-1.60;99.90
23669;DHT22;12011;47.422;15.018;2024-02-26T00:35:38;-2.30;99.90
23669;DHT22;12011;47.422;15.018;2024-02-26T00:38:08;-1.30;99.90
23669;DHT22;12011;47.422;15.018;2024-02-26T00:40:40;-2.30;99.90
23669;DHT22;12011;47.422;15.018;2024-02-26T00:43:09;-2.30;99.90
23669;DHT22;12011;47.422;15.018;2024-02-26T00:45:39;-1.10;99.90
23669;DHT22;12011;47.422;15.018;2024-02-26T00:48:08;-1.90;99.90
23669;DHT22;12011;47.422;15.018;2024-02-26T00:50:39;-2.20;99.90
23669;DHT22;12011;47.422;15.018;2024-02-26T00:53:09;-2.20;99.90
23669;DHT22;12011;47.422;15.018;2024-02-26T00:55:41;-1.90;99.90
23669;DHT22;12011;47.422;15.018;2024-02-26T00:58:10;-2.00;99.90
23669;DHT22;12011;47.422;15.018;2024-02-26T01:00:39;-0.70;99.90
23669;DHT22;12011;47.422;15.018;2024-02-26T01:03:09;-1.80;99.90
23669;DHT22;12011;47.422;15.018;2024-02-26T01:05:38;-2.00;99.90
23669;DHT22;12011;47.422;15.018;2024-02-26T01:08:08;-0.90;99.90
23669;DHT22;12011;47.422;15.018;2024-02-26T01:10:40;-1.00;99.90
23669;DHT22;12011;47.422;15.018;2024-02-26T01:13:09;-0.90;99.90
23669;DHT22;12011;47.422;15.018;2024-02-26T01:15:39;-2.10;99.90
23669;DHT22;12011;47.422;15.018;2024-02-26T01:18:10;-2.20;99.90
23669;DHT22;12011;47.422;15.018;2024-02-26T01:20:41;-2.30;99.90
23669;DHT22;12011;47.422;15.018;2024-02-26T01:23:11;-2.20;99.90
23669;DHT22;12011;47.422;15.018;2024-02-26T01:25:43;-2.20;99.90
23669;DHT22;12011;47.422;15.018;2024-02-26T01:28:13;-2.20;99.90
23669;DHT22;12011;47.422;15.018;2024-02-26T01:30:43;-2.30;99.90
23669;DHT22;12011;47.422;15.018;2024-02-26T01:33:12;-2.30;99.90
23669;DHT22;12011;47.422;15.018;2024-02-26T01:35:42;-2.10;99.90
23669;DHT22;12011;47.422;15.018;2024-02-26T01:38:12;-0.90;99.90
23669;DHT22;12011;47.422;15.018;2024-02-26T01:40:44;-1.20;99.90
23669;DHT22;12011;47.422;15.018;2024-02-26T01:43:14;-2.20;99.90
23669;DHT22;12011;47.422;15.018;2024-02-26T01:45:43;-2.20;99.90
23669;DHT22;12011;47.422;15.018;2024-02-26T01:48:13;-2.40;99.90
23669;DHT22;12011;47.422;15.018;2024-02-26T01:50:42;-1.20;99.90
23669;DHT22;12011;47.422;15.018;2024-02-26T01:53:12;-1.50;99.90
23669;DHT22;12011;47.422;15.018;2024-02-26T01:55:45;-2.40;99.90
23669;DHT22;12011;47.422;15.018;2024-02-26T01:58:16;-2.40;99.90
23669;DHT22;12011;47.422;15.018;2024-02-26T02:00:46;-2.20;99.90
23669;DHT22;12011;47.422;15.018;2024-02-26T02:03:16;-2.20;99.90
23669;DHT22;12011;47.422;15.018;2024-02-26T02:05:46;-2.20;99.90
23669;DHT22;12011;47.422;15.018;2024-02-26T02:08:15;-2.30;99.90
23669;DHT22;12011;47.422;15.018;2024-02-26T02:10:49;-1.80;99.90
23669;DHT22;12011;47.422;15.018;2024-02-26T02:13:18;-2.00;99.90
23669;DHT22;12011;47.422;15.018;2024-02-26T02:15:47;-1.10;99.90
23669;DHT22;12011;47.422;15.018;2024-02-26T02:18:17;-1.00;99.90
23669;DHT22;12011;47.422;15.018;2024-02-26T02:20:50;-1.40;99.90
23669;DHT22;12011;47.422;15.018;2024-02-26T02:23:22;-1.70;99.90
23669;DHT22;12011;47.422;15.018;2024-02-26T02:25:51;-0.90;99.90
23669;DHT22;12011;47.422;15.018;2024-02-26T02:28:22;-1.30;99.90
23669;DHT22;12011;47.422;15.018;2024-02-26T02:30:51;-0.30;99.90
23669;DHT22;12011;47.422;15.018;2024-02-26T02:33:21;-0.60;99.90
23669;DHT22;12011;47.422;15.018;2024-02-26T02:35:54;-1.30;99.90
23669;DHT22;12011;47.422;15.018;2024-02-26T02:38:24;-1.20;99.90
23669;DHT22;12011;47.422;15.018;2024-02-26T02:40:56;-1.00;99.90
23669;DHT22;12011;47.422;15.018;2024-02-26T02:43:25;-0.90;99.90
23669;DHT22;12011;47.422;15.018;2024-02-26T02:45:55;-1.00;99.90
23669;DHT22;12011;47.422;15.018;2024-02-26T02:48:24;-1.00;99.90
23669;DHT22;12011;47.422;15.018;2024-02-26T02:50:56;-1.10;99.90
23669;DHT22;12011;47.422;15.018;2024-02-26T02:53:25;-1.10;99.90
23669;DHT22;12011;47.422;15.018;2024-02-26T02:55:55;-1.20;99.90
23669;DHT22;12011;47.422;15.018;2024-02-26T02:58:24;0.00;99.90
23669;DHT22;12011;47.422;15.018;2024-02-26T03:00:53;-1.10;99.90
23669;DHT22;12011;47.422;15.018;2024-02-26T03:03:23;-1.10;99.90
23669;DHT22;12011;47.422;15.018;2024-02-26T03:05:57;-1.20;99.90
23669;DHT22;12011;47.422;15.018;2024-02-26T03:08:26;-1.10;99.90
23669;DHT22;12011;47.422;15.018;2024-02-26T03:10:58;-1.20;99.90
23669;DHT22;12011;47.422;15.018;2024-02-26T03:13:27;-1.20;99.90
23669;DHT22;12011;47.422;15.018;2024-02-26T03:15:57;-1.10;99.90
23669;DHT22;12011;47.422;15.018;2024-02-26T03:18:26;-1.20;99.90
23669;DHT22;12011;47.422;15.018;2024-02-26T03:20:58;-1.20;99.90
23669;DHT22;12011;47.422;15.018;2024-02-26T03:23:28;-1.20;99.90
23669;DHT22;12011;47.422;15.018;2024-02-26T03:25:58;-1.10;99.90
23669;DHT22;12011;47.422;15.018;2024-02-26T03:28:27;-0.50;99.90
23669;DHT22;12011;47.422;15.018;2024-02-26T03:30:59;-0.70;99.90
23669;DHT22;12011;47.422;15.018;2024-02-26T03:33:28;0.00;99.90
23669;DHT22;12011;47.422;15.018;2024-02-26T03:36:00;-1.10;99.90
23669;DHT22;12011;47.422;15.018;2024-02-26T03:38:30;-1.00;99.90
23669;DHT22;12011;47.422;15.018;2024-02-26T03:40:59;-1.10;99.90
23669;DHT22;12011;47.422;15.018;2024-02-26T03:43:29;-1.10;99.90
23669;DHT22;12011;47.422;15.018;2024-02-26T03:45:58;-1.10;99.90
23669;DHT22;12011;47.422;15.018;2024-02-26T03:48:28;-1.10;99.90
23669;DHT22;12011;47.422;15.018;2024-02-26T03:51:00;-1.10;99.90
23669;DHT22;12011;47.422;15.018;2024-02-26T03:53:29;-1.10;99.90
23669;DHT22;12011;47.422;15.018;2024-02-26T03:56:03;-1.00;99.90
23669;DHT22;12011;47.422;15.018;2024-02-26T03:58:33;-1.00;99.90
23669;DHT22;12011;47.422;15.018;2024-02-26T04:01:03;-1.00;99.90
23669;DHT22;12011;47.422;15.018;2024-02-26T04:03:32;-1.00;99.90
23669;DHT22;12011;47.422;15.018;2024-02-26T04:06:08;-1.00;99.90
23669;DHT22;12011;47.422;15.018;2024-02-26T04:08:37;-1.00;99.90
23669;DHT22;12011;47.422;15.018;2024-02-26T04:11:07;-1.00;99.90
23669;DHT22;12011;47.422;15.018;2024-02-26T04:13:37;-1.00;99.90
23669;DHT22;12011;47.422;15.018;2024-02-26T04:16:07;-1.00;99.90
23669;DHT22;12011;47.422;15.018;2024-02-26T04:18:37;-1.00;99.90
23669;DHT22;12011;47.422;15.018;2024-02-26T04:21:09;-1.00;99.90
23669;DHT22;12011;47.422;15.018;2024-02-26T04:23:38;-1.00;99.90
23669;DHT22;12011;47.422;15.018;2024-02-26T04:26:08;-0.80;99.90
23669;DHT22;12011;47.422;15.018;2024-02-26T04:28:37;-1.10;99.90
23669;DHT22;12011;47.422;15.018;2024-02-26T04:31:06;-1.10;99.90
23669;DHT22;12011;47.422;15.018;2024-02-26T04:33:36;-1.10;99.90
23669;DHT22;12011;47.422;15.018;2024-02-26T04:36:05;-0.40;99.90
23669;DHT22;12011;47.422;15.018;2024-02-26T04:38:38;-1.00;99.90
23669;DHT22;12011;47.422;15.018;2024-02-26T04:41:08;-1.10;99.90
23669;DHT22;12011;47.422;15.018;2024-02-26T04:43:38;-1.10;99.90
23669;DHT22;12011;47.422;15.018;2024-02-26T04:46:09;-1.00;99.90
23669;DHT22;12011;47.422;15.018;2024-02-26T04:48:39;-1.00;99.90
23669;DHT22;12011;47.422;15.018;2024-02-26T04:51:08;-1.00;99.90
23669;DHT22;12011;47.422;15.018;2024-02-26T04:53:40;-0.90;99.90
23669;DHT22;12011;47.422;15.018;2024-02-26T04:56:14;-1.10;99.90
23669;DHT22;12011;47.422;15.018;2024-02-26T04:58:50;-1.10;99.90
23669;DHT22;12011;47.422;15.018;2024-02-26T05:01:24;-1.00;99.90
23669;DHT22;12011;47.422;15.018;2024-02-26T05:04:03;-1.00;99.90
23669;DHT22;12011;47.422;15.018;2024-02-26T05:06:36;-1.10;99.90
23669;DHT22;12011;47.422;15.018;2024-02-26T05:09:15;-0.70;99.90
23669;DHT22;12011;47.422;15.018;2024-02-26T05:11:47;-0.30;99.90
23669;DHT22;12011;47.422;15.018;2024-02-26T05:14:21;-0.10;99.90
23669;DHT22;12011;47.422;15.018;2024-02-26T05:16:51;-0.50;99.90
23669;DHT22;12011;47.422;15.018;2024-02-26T05:19:22;-1.10;99.90
23669;DHT22;12011;47.422;15.018;2024-02-26T05:22:03;-0.60;99.90
23669;DHT22;12011;47.422;15.018;2024-02-26T05:24:42;-1.10;99.90
23669;DHT22;12011;47.422;15.018;2024-02-26T05:27:14;-1.10;99.90
23669;DHT22;12011;47.422;15.018;2024-02-26T05:29:49;-0.40;99.90
23669;DHT22;12011;47.422;15.018;2024-02-26T05:32:20;-1.00;99.90
23669;DHT22;12011;47.422;15.018;2024-02-26T05:34:50;-0.60;99.90
23669;DHT22;12011;47.422;15.018;2024-02-26T05:37:25;-1.00;99.90
23669;DHT22;12011;47.422;15.018;2024-02-26T05:39:57;-1.10;99.90
23669;DHT22;12011;47.422;15.018;2024-02-26T05:42:33;-0.30;99.90
23669;DHT22;12011;47.422;15.018;2024-02-26T05:45:04;-1.00;99.90
23669;DHT22;12011;47.422;15.018;2024-02-26T05:47:37;-1.00;99.90
23669;DHT22;12011;47.422;15.018;2024-02-26T05:50:11;-0.80;99.90
23669;DHT22;12011;47.422;15.018;2024-02-26T05:52:45;-1.00;99.90
23669;DHT22;12011;47.422;15.018;2024-02-26T05:55:19;-1.00;99.90
23669;DHT22;12011;47.422;15.018;2024-02-26T05:57:58;-0.70;99.90
23669;DHT22;12011;47.422;15.018;2024-02-26T06:00:30;-0.60;99.90
23669;DHT22;12011;47.422;15.018;2024-02-26T06:03:04;-0.10;99.90
23669;DHT22;12011;47.422;15.018;2024-02-26T06:05:42;-0.90;99.90
23669;DHT22;12011;47.422;15.018;2024-02-26T06:08:16;-0.70;99.90
23669;DHT22;12011;47.422;15.018;2024-02-26T06:10:49;-0.90;99.90
23669;DHT22;12011;47.422;15.018;2024-02-26T06:13:19;-0.90;99.90
23669;DHT22;12011;47.422;15.018;2024-02-26T06:15:48;-0.90;99.90
23669;DHT22;12011;47.422;15.018;2024-02-26T06:18:18;-0.80;99.90
23669;DHT22;12011;47.422;15.018;2024-02-26T06:20:47;-0.90;99.90
23669;DHT22;12011;47.422;15.018;2024-02-26T06:23:17;-0.90;99.90
23669;DHT22;12011;47.422;15.018;2024-02-26T06:25:49;-0.80;99.90
23669;DHT22;12011;47.422;15.018;2024-02-26T06:28:18;-0.80;99.90
23669;DHT22;12011;47.422;15.018;2024-02-26T06:30:48;-0.80;99.90
23669;DHT22;12011;47.422;15.018;2024-02-26T06:33:18;-0.70;99.90
23669;DHT22;12011;47.422;15.018;2024-02-26T06:35:48;-0.60;99.90
23669;DHT22;12011;47.422;15.018;2024-02-26T06:38:17;-0.70;99.90
23669;DHT22;12011;47.422;15.018;2024-02-26T06:40:49;-0.60;99.90
23669;DHT22;12011;47.422;15.018;2024-02-26T06:43:19;-0.60;99.90
23669;DHT22;12011;47.422;15.018;2024-02-26T06:45:48;-0.50;99.90
23669;DHT22;12011;47.422;15.018;2024-02-26T06:48:17;-0.10;99.90
23669;DHT22;12011;47.422;15.018;2024-02-26T06:50:47;-0.40;99.90
23669;DHT22;12011;47.422;15.018;2024-02-26T06:53:17;-0.40;99.90
23669;DHT22;12011;47.422;15.018;2024-02-26T06:55:49;-0.30;99.90
23669;DHT22;12011;47.422;15.018;2024-02-26T06:58:18;-0.30;99.90
23669;DHT22;12011;47.422;15.018;2024-02-26T07:00:47;-0.30;99.90
23669;DHT22;12011;47.422;15.018;2024-02-26T07:03:18;-0.20;99.90
23669;DHT22;12011;47.422;15.018;2024-02-26T07:05:48;-0.10;99.90
23669;DHT22;12011;47.422;15.018;2024-02-26T07:08:18;0.00;99.90
23669;DHT22;12011;47.422;15.018;2024-02-26T07:10:50;0.10;99.90
23669;DHT22;12011;47.422;15.018;2024-02-26T07:13:20;0.20;99.90
23669;DHT22;12011;47.422;15.018;2024-02-26T07:15:49;0.10;99.90
23669;DHT22;12011;47.422;15.018;2024-02-26T07:18:19;0.10;99.90
23669;DHT22;12011;47.422;15.018;2024-02-26T07:20:49;0.20;99.90
23669;DHT22;12011;47.422;15.018;2024-02-26T07:23:18;0.20;99.90
23669;DHT22;12011;47.422;15.018;2024-02-26T07:25:50;0.30;99.90
23669;DHT22;12011;47.422;15.018;2024-02-26T07:28:20;0.40;99.90
23669;DHT22;12011;47.422;15.018;2024-02-26T07:30:49;0.50;99.90
23669;DHT22;12011;47.422;15.018;2024-02-26T07:33:18;0.60;99.90
23669;DHT22;12011;47.422;15.018;2024-02-26T07:38:31;0.90;99.90
23669;DHT22;12011;47.422;15.018;2024-02-26T07:41:23;1.00;99.90
23669;DHT22;12011;47.422;15.018;2024-02-26T07:44:13;1.00;99.90
23669;DHT22;12011;47.422;15.018;2024-02-26T07:47:03;1.50;99.90
23669;DHT22;12011;47.422;15.018;2024-02-26T09:04:22;3.70;99.90
23669;DHT22;12011;47.422;15.018;2024-02-26T09:07:12;4.10;99.90
23669;DHT22;12011;47.422;15.018;2024-02-26T09:10:03;4.60;99.90
23669;DHT22;12011;47.422;15.018;2024-02-26T09:12:54;4.60;99.90
23669;DHT22;12011;47.422;15.018;2024-02-26T09:15:44;4.50;99.90
23669;DHT22;12011;47.422;15.018;2024-02-26T09:18:34;4.60;99.90
23669;DHT22;12011;47.422;15.018;2024-02-26T09:21:26;4.70;99.90
23669;DHT22;12011;47.422;15.018;2024-02-26T09:24:17;4.60;99.90
23669;DHT22;12011;47.422;15.018;2024-02-26T09:27:06;4.90;99.90
23669;DHT22;12011;47.422;15.018;2024-02-26T09:29:56;5.10;99.90
23669;DHT22;12011;47.422;15.018;2024-02-26T09:32:47;5.10;99.90
23669;DHT22;12011;47.422;15.018;2024-02-26T09:35:37;5.10;99.90
23669;DHT22;12011;47.422;15.018;2024-02-26T09:38:30;5.10;99.90
23669;DHT22;12011;47.422;15.018;2024-02-26T09:41:23;4.90;99.90
23669;DHT22;12011;47.422;15.018;2024-02-26T09:44:18;4.70;99.90
23669;DHT22;12011;47.422;15.018;2024-02-26T09:47:11;4.60;99.90
23669;DHT22;12011;47.422;15.018;2024-02-26T09:50:06;5.00;99.90
23669;DHT22;12011;47.422;15.018;2024-02-26T09:52:59;6.00;99.90
23669;DHT22;12011;47.422;15.018;2024-02-26T09:55:52;6.40;99.90
23669;DHT22;12011;47.422;15.018;2024-02-26T09:58:42;5.90;99.90
23669;DHT22;12011;47.422;15.018;2024-02-26T10:01:35;6.30;99.90
23669;DHT22;12011;47.422;15.018;2024-02-26T10:04:26;7.30;99.90
23669;DHT22;12011;47.422;15.018;2024-02-26T10:07:16;8.00;99.90
23669;DHT22;12011;47.422;15.018;2024-02-26T10:10:08;8.10;99.90
23669;DHT22;12011;47.422;15.018;2024-02-26T10:13:02;8.00;99.90
23669;DHT22;12011;47.422;15.018;2024-02-26T10:15:56;7.70;99.90
23669;DHT22;12011;47.422;15.018;2024-02-26T10:18:47;7.90;99.90
23669;DHT22;12011;47.422;15.018;2024-02-26T10:21:37;7.90;99.90
23669;DHT22;12011;47.422;15.018;2024-02-26T10:24:29;7.80;99.90
23669;DHT22;12011;47.422;15.018;2024-02-26T10:27:21;8.00;99.90
23669;DHT22;12011;47.422;15.018;2024-02-26T10:30:21;8.30;99.90
23669;DHT22;12011;47.422;15.018;2024-02-26T10:33:12;8.50;99.90
23669;DHT22;12011;47.422;15.018;2024-02-26T10:36:03;8.70;99.90
23669;DHT22;12011;47.422;15.018;2024-02-26T10:38:55;8.60;99.90
23669;DHT22;12011;47.422;15.018;2024-02-26T10:41:45;8.60;99.90
23669;DHT22;12011;47.422;15.018;2024-02-26T10:44:34;8.90;99.90
23669;DHT22;12011;47.422;15.018;2024-02-26T10:47:27;9.00;99.90
23669;DHT22;12011;47.422;15.018;2024-02-26T10:50:18;9.20;99.90
23669;DHT22;12011;47.422;15.018;2024-02-26T10:53:16;10.10;99.90
23669;DHT22;12011;47.422;15.018;2024-02-26T10:56:08;10.70;99.60
23669;DHT22;12011;47.422;15.018;2024-02-26T10:58:58;10.90;88.10
23669;DHT22;12011;47.422;15.018;2024-02-26T11:01:49;10.90;84.80
23669;DHT22;12011;47.422;15.018;2024-02-26T11:04:43;10.80;93.20
23669;DHT22;12011;47.422;15.018;2024-02-26T11:07:34;10.90;98.50
23669;DHT22;12011;47.422;15.018;2024-02-26T11:10:27;11.10;79.70
23669;DHT22;12011;47.422;15.018;2024-02-26T11:13:20;10.80;83.20
23669;DHT22;12011;47.422;15.018;2024-02-26T11:16:12;10.70;71.90
23669;DHT22;12011;47.422;15.018;2024-02-26T11:19:03;10.80;79.80
23669;DHT22;12011;47.422;15.018;2024-02-26T11:21:56;11.20;63.10
23669;DHT22;12011;47.422;15.018;2024-02-26T11:24:48;11.70;72.80
23669;DHT22;12011;47.422;15.018;2024-02-26T11:27:42;11.90;73.90
23669;DHT22;12011;47.422;15.018;2024-02-26T11:30:39;12.20;68.60
23669;DHT22;12011;47.422;15.018;2024-02-26T11:33:31;13.00;61.80
23669;DHT22;12011;47.422;15.018;2024-02-26T11:36:24;13.50;50.80
23669;DHT22;12011;47.422;15.018;2024-02-26T11:39:16;12.90;47.30
23669;DHT22;12011;47.422;15.018;2024-02-26T11:42:07;12.30;49.20
23669;DHT22;12011;47.422;15.018;2024-02-26T11:44:58;11.30;57.80
23669;DHT22;12011;47.422;15.018;2024-02-26T11:47:56;11.70;54.50
23669;DHT22;12011;47.422;15.018;2024-02-26T11:50:47;12.10;56.90
23669;DHT22;12011;47.422;15.018;2024-02-26T11:53:46;12.70;52.90
23669;DHT22;12011;47.422;15.018;2024-02-26T11:56:40;12.80;48.90
23669;DHT22;12011;47.422;15.018;2024-02-26T11:59:38;12.90;48.70
23669;DHT22;12011;47.422;15.018;2024-02-26T12:02:43;12.50;46.30
23669;DHT22;12011;47.422;15.018;2024-02-26T12:05:35;12.10;46.00
23669;DHT22;12011;47.422;15.018;2024-02-26T12:08:25;11.80;46.40
23669;DHT22;12011;47.422;15.018;2024-02-26T12:11:15;11.60;47.40
23669;DHT22;12011;47.422;15.018;2024-02-26T12:14:09;11.80;49.50
23669;DHT22;12011;47.422;15.018;2024-02-26T12:17:00;12.60;46.60
23669;DHT22;12011;47.422;15.018;2024-02-26T12:19:52;13.40;45.80
23669;DHT22;12011;47.422;15.018;2024-02-26T12:22:45;13.40;41.80
23669;DHT22;12011;47.422;15.018;2024-02-26T12:25:36;13.30;42.70
23669;DHT22;12011;47.422;15.018;2024-02-26T12:28:27;12.80;43.30
23669;DHT22;12011;47.422;15.018;2024-02-26T12:31:20;12.40;45.30
23669;DHT22;12011;47.422;15.018;2024-02-26T12:34:10;12.00;45.60
23669;DHT22;12011;47.422;15.018;2024-02-26T12:37:01;11.60;45.90
23669;DHT22;12011;47.422;15.018;2024-02-26T12:39:54;11.30;47.50
23669;DHT22;12011;47.422;15.018;2024-02-26T12:42:43;11.10;46.70
23669;DHT22;12011;47.422;15.018;2024-02-26T12:45:33;11.30;46.60
23669;DHT22;12011;47.422;15.018;2024-02-26T12:48:25;11.80;49.60
23669;DHT22;12011;47.422;15.018;2024-02-26T12:51:16;11.90;46.40
23669;DHT22;12011;47.422;15.018;2024-02-26T12:54:08;11.90;45.30
23669;DHT22;12011;47.422;15.018;2024-02-26T12:56:59;11.60;45.50
23669;DHT22;12011;47.422;15.018;2024-02-26T12:59:50;11.40;46.80
23669;DHT22;12011;47.422;15.018;2024-02-26T13:02:41;11.20;46.40
23669;DHT22;12011;47.422;15.018;2024-02-26T13:05:34;10.80;45.90
23669;DHT22;12011;47.422;15.018;2024-02-26T13:08:25;10.20;49.70
23669;DHT22;12011;47.422;15.018;2024-02-26T13:11:15;10.20;48.50
23669;DHT22;12011;47.422;15.018;2024-02-26T13:14:04;10.30;49.80
23669;DHT22;12011;47.422;15.018;2024-02-26T13:16:55;10.20;50.70
23669;DHT22;12011;47.422;15.018;2024-02-26T13:19:51;10.20;52.10
23669;DHT22;12011;47.422;15.018;2024-02-26T13:22:44;10.10;51.30
23669;DHT22;12011;47.422;15.018;2024-02-26T13:25:34;10.10;50.10
23669;DHT22;12011;47.422;15.018;2024-02-26T13:28:25;10.10;53.20
23669;DHT22;12011;47.422;15.018;2024-02-26T13:31:15;10.10;53.90
23669;DHT22;12011;47.422;15.018;2024-02-26T13:34:05;10.00;53.10
23669;DHT22;12011;47.422;15.018;2024-02-26T13:36:55;9.80;52.30
23669;DHT22;12011;47.422;15.018;2024-02-26T13:39:47;9.60;52.30
23669;DHT22;12011;47.422;15.018;2024-02-26T13:42:38;9.50;54.20
23669;DHT22;12011;47.422;15.018;2024-02-26T13:45:28;9.20;55.30
23669;DHT22;12011;47.422;15.018;2024-02-26T13:48:24;9.20;55.30
23669;DHT22;12011;47.422;15.018;2024-02-26T13:51:14;9.30;57.00
23669;DHT22;12011;47.422;15.018;2024-02-26T13:54:04;9.30;55.60
23669;DHT22;12011;47.422;15.018;2024-02-26T13:56:56;9.30;55.30
23669;DHT22;12011;47.422;15.018;2024-02-26T13:59:46;9.30;57.10
23669;DHT22;12011;47.422;15.018;2024-02-26T14:02:37;9.30;59.00
23669;DHT22;12011;47.422;15.018;2024-02-26T14:05:27;9.30;54.40
23669;DHT22;12011;47.422;15.018;2024-02-26T14:08:16;9.30;57.00
23669;DHT22;12011;47.422;15.018;2024-02-26T14:11:06;9.20;58.00
23669;DHT22;12011;47.422;15.018;2024-02-26T14:13:58;9.10;55.30
23669;DHT22;12011;47.422;15.018;2024-02-26T14:16:48;9.10;59.20
23669;DHT22;12011;47.422;15.018;2024-02-26T14:19:38;9.10;57.80
23669;DHT22;12011;47.422;15.018;2024-02-26T14:22:30;9.00;58.90
23669;DHT22;12011;47.422;15.018;2024-02-26T14:25:20;9.00;56.90
23669;DHT22;12011;47.422;15.018;2024-02-26T14:28:10;8.80;59.50
23669;DHT22;12011;47.422;15.018;2024-02-26T14:31:03;8.80;58.60
23669;DHT22;12011;47.422;15.018;2024-02-26T14:33:53;8.80;59.30
23669;DHT22;12011;47.422;15.018;2024-02-26T14:36:43;8.80;61.30
23669;DHT22;12011;47.422;15.018;2024-02-26T14:39:33;8.80;59.90
23669;DHT22;12011;47.422;15.018;2024-02-26T14:42:23;8.80;60.60
23669;DHT22;12011;47.422;15.018;2024-02-26T14:45:13;8.80;60.40
23669;DHT22;12011;47.422;15.018;2024-02-26T14:48:06;8.80;60.50
23669;DHT22;12011;47.422;15.018;2024-02-26T14:50:57;8.80;59.30
23669;DHT22;12011;47.422;15.018;2024-02-26T14:53:48;8.70;62.30
23669;DHT22;12011;47.422;15.018;2024-02-26T14:56:38;8.70;62.80
23669;DHT22;12011;47.422;15.018;2024-02-26T14:59:28;8.60;62.20
23669;DHT22;12011;47.422;15.018;2024-02-26T15:02:17;8.60;66.50
23669;DHT22;12011;47.422;15.018;2024-02-26T15:05:10;8.60;64.10
23669;DHT22;12011;47.422;15.018;2024-02-26T15:08:00;8.50;62.90
23669;DHT22;12011;47.422;15.018;2024-02-26T15:10:50;8.50;64.50
23669;DHT22;12011;47.422;15.018;2024-02-26T15:13:39;8.50;62.30
23669;DHT22;12011;47.422;15.018;2024-02-26T15:16:29;8.50;65.70
23669;DHT22;12011;47.422;15.018;2024-02-26T15:19:19;8.50;67.20
23669;DHT22;12011;47.422;15.018;2024-02-26T15:22:11;8.40;65.90
23669;DHT22;12011;47.422;15.018;2024-02-26T15:25:01;8.40;70.80
23669;DHT22;12011;47.422;15.018;2024-02-26T15:27:50;8.40;65.40
23669;DHT22;12011;47.422;15.018;2024-02-26T15:30:40;8.40;63.30
23669;DHT22;12011;47.422;15.018;2024-02-26T15:33:30;8.30;64.40
23669;DHT22;12011;47.422;15.018;2024-02-26T15:36:20;8.30;71.30
23669;DHT22;12011;47.422;15.018;2024-02-26T15:39:12;8.20;66.30
23669;DHT22;12011;47.422;15.018;2024-02-26T15:42:02;8.30;65.80
23669;DHT22;12011;47.422;15.018;2024-02-26T15:47:54;8.20;68.70
23669;DHT22;12011;47.422;15.018;2024-02-26T15:50:24;8.20;69.50
23669;DHT22;12011;47.422;15.018;2024-02-26T15:52:53;8.10;71.40
23669;DHT22;12011;47.422;15.018;2024-02-26T15:55:27;8.10;79.50
23669;DHT22;12011;47.422;15.018;2024-02-26T15:57:56;8.00;75.10
23669;DHT22;12011;47.422;15.018;2024-02-26T16:00:25;8.00;70.00
23669;DHT22;12011;47.422;15.018;2024-02-26T16:02:55;7.90;73.50
23669;DHT22;12011;47.422;15.018;2024-02-26T16:05:24;7.90;80.00
23669;DHT22;12011;47.422;15.018;2024-02-26T16:07:57;7.70;86.00
23669;DHT22;12011;47.422;15.018;2024-02-26T16:10:33;7.60;79.20
23669;DHT22;12011;47.422;15.018;2024-02-26T16:13:06;7.70;78.40
23669;DHT22;12011;47.422;15.018;2024-02-26T16:15:36;7.70;78.30
23669;DHT22;12011;47.422;15.018;2024-02-26T16:18:05;7.50;83.40
23669;DHT22;12011;47.422;15.018;2024-02-26T16:20:35;7.30;85.60
23669;DHT22;12011;47.422;15.018;2024-02-26T16:23:05;7.40;87.10
23669;DHT22;12011;47.422;15.018;2024-02-26T16:25:37;7.30;89.20
23669;DHT22;12011;47.422;15.018;2024-02-26T16:28:06;7.20;90.60
23669;DHT22;12011;47.422;15.018;2024-02-26T16:30:36;7.30;90.30
23669;DHT22;12011;47.422;15.018;2024-02-26T16:33:05;7.00;93.20
23669;DHT22;12011;47.422;15.018;2024-02-26T16:35:34;7.00;93.10
23669;DHT22;12011;47.422;15.018;2024-02-26T16:38:04;7.00;90.80
23669;DHT22;12011;47.422;15.018;2024-02-26T16:40:33;7.00;90.40
23669;DHT22;12011;47.422;15.018;2024-02-26T16:43:05;7.10;89.80
23669;DHT22;12011;47.422;15.018;2024-02-26T16:45:35;6.70;98.30
23669;DHT22;12011;47.422;15.018;2024-02-26T16:48:05;6.60;98.20
23669;DHT22;12011;47.422;15.018;2024-02-26T16:50:35;6.20;99.90
23669;DHT22;12011;47.422;15.018;2024-02-26T16:53:05;5.90;99.90
23669;DHT22;12011;47.422;15.018;2024-02-26T16:55:37;5.70;99.90
23669;DHT22;12011;47.422;15.018;2024-02-26T16:58:06;5.40;99.90
23669;DHT22;12011;47.422;15.018;2024-02-26T17:00:36;5.30;99.90
23669;DHT22;12011;47.422;15.018;2024-02-26T17:03:05;5.30;99.90
23669;DHT22;12011;47.422;15.018;2024-02-26T17:05:34;5.60;99.90
23669;DHT22;12011;47.422;15.018;2024-02-26T17:08:04;5.40;99.90
23669;DHT22;12011;47.422;15.018;2024-02-26T17:10:39;5.50;99.90
23669;DHT22;12011;47.422;15.018;2024-02-26T17:13:08;5.30;99.90
23669;DHT22;12011;47.422;15.018;2024-02-26T17:15:38;5.20;99.90
23669;DHT22;12011;47.422;15.018;2024-02-26T17:18:07;5.20;99.90
23669;DHT22;12011;47.422;15.018;2024-02-26T17:20:39;5.10;99.90
23669;DHT22;12011;47.422;15.018;2024-02-26T17:23:08;5.00;99.90
23669;DHT22;12011;47.422;15.018;2024-02-26T17:25:41;4.90;99.90
23669;DHT22;12011;47.422;15.018;2024-02-26T17:28:10;4.90;99.90
23669;DHT22;12011;47.422;15.018;2024-02-26T17:30:39;5.00;99.90
23669;DHT22;12011;47.422;15.018;2024-02-26T17:33:09;5.00;99.90
23669;DHT22;12011;47.422;15.018;2024-02-26T17:35:38;5.10;99.90
23669;DHT22;12011;47.422;15.018;2024-02-26T17:38:08;5.10;99.90
23669;DHT22;12011;47.422;15.018;2024-02-26T17:40:40;5.00;99.90
23669;DHT22;12011;47.422;15.018;2024-02-26T17:43:09;5.00;99.90
23669;DHT22;12011;47.422;15.018;2024-02-26T17:45:38;5.00;99.90
23669;DHT22;12011;47.422;15.018;2024-02-26T17:48:08;5.00;99.90
23669;DHT22;12011;47.422;15.018;2024-02-26T17:50:37;4.90;99.90
23669;DHT22;12011;47.422;15.018;2024-02-26T17:53:07;5.00;99.90